createdAt,value
2019-04-27T00:01:58.138Z,11.34
2019-04-27T00:07:05.193Z,11.37
2019-04-27T00:12:08.745Z,11.37
2019-04-27T00:17:44.826Z,11.38
2019-04-27T00:22:44.345Z,11.41
2019-04-27T00:27:45.904Z,11.30
2019-04-27T00:32:47.667Z,11.24
2019-04-27T00:38:13.059Z,11.31
2019-04-27T00:43:14.988Z,11.33
2019-04-27T00:48:16.537Z,11.23
2019-04-27T00:53:18.203Z,11.14
2019-04-27T00:58:34.225Z,11.04
2019-04-27T01:03:45.459Z,11.05
2019-04-27T01:08:47.026Z,11.00
2019-04-27T01:13:48.700Z,11.11
2019-04-27T01:18:50.264Z,11.23
2019-04-27T01:23:51.825Z,11.26
2019-04-27T01:28:59.194Z,11.24
2019-04-27T01:34:00.867Z,11.20
2019-04-27T01:39:06.194Z,11.18
2019-04-27T01:44:09.221Z,11.22
2019-04-27T01:49:10.945Z,11.23
2019-04-27T01:54:15.242Z,11.20
2019-04-27T01:59:16.900Z,11.22
2019-04-27T02:04:34.574Z,11.25
2019-04-27T02:09:36.200Z,11.25
2019-04-27T02:14:38.978Z,11.19
2019-04-27T02:19:40.651Z,11.16
2019-04-27T02:24:42.337Z,11.20
2019-04-27T02:30:02.217Z,11.21
2019-04-27T02:35:06.558Z,11.26
2019-04-27T02:40:20.445Z,11.26
2019-04-27T02:45:22.356Z,11.25
2019-04-27T02:50:23.861Z,11.23
2019-04-27T02:55:25.416Z,11.25
2019-04-27T03:00:28.814Z,11.27
2019-04-27T03:05:30.573Z,11.30
2019-04-27T03:10:32.236Z,11.29
2019-04-27T03:15:45.072Z,11.27
2019-04-27T03:20:50.780Z,11.28
2019-04-27T03:26:12.030Z,11.31
2019-04-27T03:31:14.280Z,11.36
2019-04-27T03:36:16.147Z,11.39
2019-04-27T03:41:19.292Z,11.35
2019-04-27T03:46:20.895Z,11.36
2019-04-27T03:51:31.416Z,11.39
2019-04-27T03:56:55.418Z,11.44
2019-04-27T04:01:58.911Z,11.49
2019-04-27T04:07:12.745Z,11.53
2019-04-27T04:12:26.543Z,11.58
2019-04-27T04:17:30.712Z,11.54
2019-04-27T04:22:31.835Z,11.50
2019-04-27T04:27:33.488Z,11.57
2019-04-27T04:32:35.152Z,11.54
2019-04-27T04:37:39.298Z,11.52
2019-04-27T04:42:45.685Z,11.52
2019-04-27T04:48:05.886Z,11.53
2019-04-27T04:53:11.771Z,11.55
2019-04-27T04:58:10.993Z,11.54
2019-04-27T05:03:12.543Z,11.56
2019-04-27T05:08:14.073Z,11.57
2019-04-27T05:13:15.634Z,11.59
2019-04-27T05:18:18.949Z,11.65
2019-04-27T05:23:20.674Z,11.67
2019-04-27T05:28:22.251Z,11.66
2019-04-27T05:33:23.817Z,11.69
2019-04-27T05:38:25.512Z,11.70
2019-04-27T05:43:34.051Z,11.78
2019-04-27T05:48:35.898Z,11.83
2019-04-27T05:53:37.466Z,11.86
2019-04-27T05:58:39.317Z,11.88
2019-04-27T06:03:41.234Z,11.90
2019-04-27T06:08:42.861Z,11.94
2019-04-27T06:13:44.618Z,11.98
2019-04-27T06:18:46.163Z,12.01
2019-04-27T06:23:48.757Z,12.00
2019-04-27T06:28:50.586Z,11.93
2019-04-27T06:33:52.148Z,11.94
2019-04-27T06:38:53.670Z,12.01
2019-04-27T06:43:55.230Z,12.07
2019-04-27T06:48:56.795Z,12.11
2019-04-27T06:53:59.455Z,12.19
2019-04-27T06:59:01.245Z,12.27
2019-04-27T07:04:03.200Z,12.30
2019-04-27T07:09:09.462Z,12.29
2019-04-27T07:14:11.704Z,12.31
2019-04-27T07:19:13.490Z,12.40
2019-04-27T07:24:15.036Z,12.47
2019-04-27T07:29:16.976Z,12.53
2019-04-27T07:34:19.038Z,12.56
2019-04-27T07:39:20.691Z,12.65
2019-04-27T07:44:34.248Z,12.68
2019-04-27T07:49:35.778Z,12.73
2019-04-27T07:54:38.454Z,12.81
2019-04-27T07:59:42.060Z,12.82
2019-04-27T08:04:43.830Z,12.85
2019-04-27T08:09:45.383Z,12.94
2019-04-27T08:14:48.958Z,13.04
2019-04-27T08:19:51.550Z,13.01
2019-04-27T08:24:54.324Z,13.11
2019-04-27T08:30:12.161Z,13.16
2019-04-27T08:35:13.878Z,13.24
2019-04-27T08:40:15.822Z,13.37
2019-04-27T08:45:19.316Z,13.37
2019-04-27T08:50:21.198Z,13.41
2019-04-27T08:55:22.880Z,13.44
2019-04-27T09:00:24.561Z,13.45
2019-04-27T09:05:26.196Z,13.57
2019-04-27T09:10:42.035Z,13.68
2019-04-27T09:15:57.143Z,13.83
2019-04-27T09:21:00.361Z,13.97
2019-04-27T09:26:01.940Z,14.04
2019-04-27T09:31:04.144Z,14.11
2019-04-27T09:36:06.157Z,14.17
2019-04-27T09:41:08.142Z,14.27
2019-04-27T09:46:09.713Z,14.31
2019-04-27T09:51:11.276Z,14.36
2019-04-27T09:56:12.907Z,14.49
2019-04-27T10:01:15.809Z,14.66
2019-04-27T10:06:18.084Z,14.78
2019-04-27T10:11:19.657Z,14.98
2019-04-27T10:16:21.350Z,15.02
2019-04-27T10:21:23.033Z,15.20
2019-04-27T10:26:25.935Z,15.29
2019-04-27T10:31:27.563Z,15.27
2019-04-27T10:36:40.800Z,15.30
2019-04-27T10:41:42.405Z,15.36
2019-04-27T10:46:44.798Z,15.43
2019-04-27T10:51:46.375Z,15.50
2019-04-27T10:56:47.920Z,15.60
2019-04-27T11:01:49.910Z,15.68
2019-04-27T11:07:00.449Z,15.78
2019-04-27T11:12:02.123Z,15.93
2019-04-27T11:17:06.448Z,15.94
2019-04-27T11:22:08.277Z,16.02
2019-04-27T11:27:09.869Z,16.07
2019-04-27T11:32:11.447Z,16.17
2019-04-27T11:37:14.685Z,16.22
2019-04-27T11:42:16.476Z,16.40
2019-04-27T11:47:18.170Z,16.44
2019-04-27T11:52:19.720Z,17.58
2019-04-27T11:57:21.310Z,17.58
2019-04-27T12:02:22.915Z,18.01
2019-04-27T12:07:24.477Z,18.22
2019-04-27T12:12:26.250Z,17.87
2019-04-27T12:17:29.253Z,17.82
2019-04-27T12:22:30.919Z,17.61
2019-04-27T12:27:42.127Z,17.84
2019-04-27T12:32:45.340Z,18.39
2019-04-27T12:37:47.349Z,18.40
2019-04-27T12:42:49.019Z,18.41
2019-04-27T12:47:50.575Z,18.02
2019-04-27T12:52:56.154Z,17.22
2019-04-27T12:58:06.514Z,16.04
2019-04-27T13:03:08.068Z,15.33
2019-04-27T13:08:09.617Z,15.13
2019-04-27T13:13:11.259Z,15.26
2019-04-27T13:18:12.815Z,15.04
2019-04-27T13:23:14.378Z,14.81
2019-04-27T13:28:16.044Z,14.64
2019-04-27T13:33:17.726Z,14.62
2019-04-27T13:38:19.297Z,14.77
2019-04-27T13:43:27.090Z,14.86
2019-04-27T13:48:51.136Z,14.89
2019-04-27T13:53:51.754Z,15.01
2019-04-27T13:58:53.288Z,15.19
2019-04-27T14:03:54.832Z,15.38
2019-04-27T14:08:56.412Z,15.41
2019-04-27T14:13:57.953Z,15.38
2019-04-27T14:18:59.523Z,15.55
2019-04-27T14:24:01.053Z,15.62
2019-04-27T14:29:02.809Z,15.63
2019-04-27T14:34:04.469Z,15.68
2019-04-27T14:39:09.434Z,15.72
2019-04-27T14:44:11.139Z,15.70
2019-04-27T14:49:15.505Z,15.78
2019-04-27T14:54:17.194Z,16.01
2019-04-27T14:59:18.850Z,16.56
2019-04-27T15:04:20.572Z,16.70
2019-04-27T15:09:23.925Z,16.62
2019-04-27T15:14:25.789Z,17.04
2019-04-27T15:19:33.160Z,17.52
2019-04-27T15:24:34.957Z,17.30
2019-04-27T15:29:36.519Z,17.12
2019-04-27T15:35:05.309Z,17.23
2019-04-27T15:40:33.818Z,17.03
2019-04-27T15:45:35.582Z,16.81
2019-04-27T15:50:38.710Z,16.60
2019-04-27T15:55:40.414Z,16.43
2019-04-27T16:00:41.970Z,16.12
2019-04-27T16:05:43.694Z,15.51
2019-04-27T16:10:45.327Z,15.27
2019-04-27T16:15:50.151Z,15.10
2019-04-27T16:20:50.489Z,14.89
2019-04-27T16:25:52.162Z,14.79
2019-04-27T16:30:54.181Z,14.63
2019-04-27T16:35:59.489Z,14.50
2019-04-27T16:41:03.185Z,14.45
2019-04-27T16:46:04.640Z,14.37
2019-04-27T16:51:08.679Z,14.28
2019-04-27T16:56:15.104Z,14.18
2019-04-27T17:01:33.639Z,13.93
2019-04-27T17:07:42.004Z,13.77
2019-04-27T17:12:45.903Z,13.75
2019-04-27T17:18:09.487Z,13.85
2019-04-27T17:23:11.012Z,13.86
2019-04-27T17:28:15.922Z,13.94
2019-04-27T17:33:30.704Z,13.98
2019-04-27T17:38:32.355Z,13.93
2019-04-27T17:43:37.458Z,13.94
2019-04-27T17:48:38.072Z,13.88
2019-04-27T17:53:39.688Z,13.94
2019-04-27T17:58:41.239Z,13.93
2019-04-27T18:03:42.785Z,13.92
2019-04-27T18:08:44.334Z,13.93
2019-04-27T18:13:46.097Z,13.91
2019-04-27T18:19:12.183Z,13.80
2019-04-27T18:24:18.535Z,13.77
2019-04-27T18:29:22.924Z,13.81
2019-04-27T18:34:23.517Z,13.67
2019-04-27T18:39:25.171Z,13.63
2019-04-27T18:44:30.514Z,13.61
2019-04-27T18:49:38.631Z,13.60
2019-04-27T18:54:42.176Z,13.58
2019-04-27T18:59:43.752Z,13.56
2019-04-27T19:04:45.284Z,13.55
2019-04-27T19:09:49.428Z,13.61
2019-04-27T19:14:50.248Z,13.61
2019-04-27T19:19:51.787Z,13.57
2019-04-27T19:24:53.416Z,13.55
2019-04-27T19:29:58.890Z,13.54
2019-04-27T19:35:00.486Z,13.52
2019-04-27T19:40:02.124Z,13.50
2019-04-27T19:45:04.372Z,13.50
2019-04-27T19:50:06.042Z,13.46
2019-04-27T19:55:08.512Z,13.42
2019-04-27T20:00:22.189Z,13.37
2019-04-27T20:05:24.232Z,13.41
2019-04-27T20:10:25.763Z,13.46
2019-04-27T20:15:27.318Z,13.44
2019-04-27T20:20:28.867Z,12.93
2019-04-27T20:25:31.300Z,12.27
2019-04-27T20:30:33.204Z,11.88
2019-04-27T20:35:34.840Z,11.73
2019-04-27T20:40:36.407Z,11.70
2019-04-27T20:45:37.950Z,11.72
2019-04-27T20:50:41.143Z,11.69
2019-04-27T20:55:42.956Z,11.62
2019-04-27T21:00:44.522Z,11.51
2019-04-27T21:06:21.242Z,11.72
2019-04-27T21:11:22.828Z,11.78
2019-04-27T21:16:24.351Z,11.64
2019-04-27T21:21:25.891Z,11.67
2019-04-27T21:26:27.445Z,11.55
2019-04-27T21:31:28.994Z,11.29
2019-04-27T21:36:31.018Z,11.22
2019-04-27T21:41:32.814Z,11.17
2019-04-27T21:46:34.947Z,11.19
2019-04-27T21:51:56.208Z,11.14
2019-04-27T21:56:57.747Z,11.05
2019-04-27T22:02:02.259Z,11.10
2019-04-27T22:07:04.005Z,11.11
2019-04-27T22:12:05.658Z,11.08
2019-04-27T22:17:07.385Z,11.13
2019-04-27T22:22:17.841Z,11.22
2019-04-27T22:27:20.704Z,11.29
2019-04-27T22:32:22.413Z,11.27
2019-04-27T22:37:23.958Z,11.20
2019-04-27T22:42:43.770Z,11.16
2019-04-27T22:47:45.296Z,11.03
2019-04-27T22:52:46.957Z,11.10
2019-04-27T22:57:54.132Z,11.01
2019-04-27T23:02:58.693Z,10.94
2019-04-27T23:08:01.937Z,10.88
2019-04-27T23:13:03.790Z,10.84
2019-04-27T23:18:05.459Z,10.83
2019-04-27T23:23:07.026Z,10.88
2019-04-27T23:28:08.583Z,10.87
2019-04-27T23:33:11.155Z,10.84
2019-04-27T23:38:17.276Z,10.83
2019-04-27T23:43:16.285Z,10.92
2019-04-27T23:48:17.858Z,10.99
2019-04-27T23:53:21.927Z,11.03
2019-04-27T23:58:23.618Z,11.00
